Time;durP1;ratioP1;P1;durP2;ratioP2;P2;SDS_P1;SDS_P2;PMS_P1;PMS_P2;Temp;Humidity;BMP_temperature;BMP_pressure;BME280_temperature;BME280_humidity;BME280_pressure;Samples;Min_cycle;Max_cycle;Signal;HPM_P1;HPM_P2
2023/04/28 00:01:37;;;;;;;48.63;29.02;;;4.30;99.90;;;;;;5083826;28;20638;-75
2023/04/28 00:04:04;;;;;;;57.55;29.33;;;4.30;99.90;;;;;;5083040;28;20055;-75
2023/04/28 00:06:31;;;;;;;53.22;30.02;;;4.30;99.90;;;;;;5079565;28;20036;-75
2023/04/28 00:08:59;;;;;;;52.47;29.48;;;4.20;99.90;;;;;;5078982;28;20052;-75
2023/04/28 00:11:28;;;;;;;60.72;32.55;;;4.20;99.90;;;;;;5076081;28;20400;-75
2023/04/28 00:13:55;;;;;;;55.97;32.17;;;4.10;99.90;;;;;;5079439;28;20125;-76
2023/04/28 00:16:22;;;;;;;46.22;26.52;;;4.00;99.90;;;;;;5077919;28;20036;-76
2023/04/28 00:18:50;;;;;;;43.15;25.60;;;4.00;99.90;;;;;;5078728;28;20122;-75
2023/04/28 00:21:18;;;;;;;42.83;23.85;;;4.00;99.90;;;;;;5059432;28;20780;-74
2023/04/28 00:23:45;;;;;;;36.95;20.98;;;4.00;99.90;;;;;;5077370;28;20040;-78
2023/04/28 00:26:12;;;;;;;34.40;20.90;;;4.00;99.90;;;;;;5079885;28;20036;-76
2023/04/28 00:28:44;;;;;;;39.00;21.00;;;4.10;99.90;;;;;;5077321;28;20033;-76
2023/04/28 00:31:12;;;;;;;37.05;20.95;;;4.00;99.90;;;;;;5040352;28;20063;-76
2023/04/28 00:33:39;;;;;;;45.63;23.27;;;4.00;99.90;;;;;;5038147;28;20044;-76
2023/04/28 00:36:08;;;;;;;36.30;20.50;;;3.90;99.90;;;;;;5038383;28;20041;-76
2023/04/28 00:38:35;;;;;;;31.08;18.92;;;3.90;99.90;;;;;;5036708;28;20560;-75
2023/04/28 00:41:03;;;;;;;32.58;16.80;;;3.90;99.90;;;;;;5038681;28;20348;-75
2023/04/28 00:43:31;;;;;;;31.50;18.40;;;3.90;99.90;;;;;;5041012;28;20579;-75
2023/04/28 00:46:00;;;;;;;29.88;18.55;;;3.90;99.90;;;;;;5041955;28;20033;-76
2023/04/28 00:48:28;;;;;;;28.60;17.92;;;3.90;99.90;;;;;;5042416;28;20053;-74
2023/04/28 00:50:56;;;;;;;29.85;18.73;;;3.80;99.90;;;;;;5039958;28;20101;-77
2023/04/28 00:53:23;;;;;;;30.85;18.65;;;3.70;99.90;;;;;;5040370;28;20531;-77
2023/04/28 00:55:55;;;;;;;34.35;18.98;;;3.70;99.90;;;;;;5040764;28;20496;-74
2023/04/28 00:58:23;;;;;;;37.85;23.67;;;3.70;99.90;;;;;;5040790;28;20507;-74
2023/04/28 01:00:51;;;;;;;30.10;19.02;;;3.70;99.90;;;;;;5041855;28;20394;-76
2023/04/28 01:03:20;;;;;;;49.40;28.67;;;3.70;99.90;;;;;;5040576;28;20040;-77
2023/04/28 01:05:48;;;;;;;33.65;19.67;;;3.70;99.90;;;;;;5040745;28;20061;-75
2023/04/28 01:08:16;;;;;;;29.23;18.65;;;3.70;99.90;;;;;;5038616;28;20051;-76
2023/04/28 01:10:45;;;;;;;29.92;18.30;;;3.70;99.90;;;;;;5047982;28;20033;-75
2023/04/28 01:13:21;;;;;;;29.80;18.15;;;3.60;99.90;;;;;;5045669;28;20068;-75
2023/04/28 01:15:49;;;;;;;27.90;17.60;;;3.60;99.90;;;;;;5039805;28;20177;-75
2023/04/28 01:18:17;;;;;;;29.25;18.77;;;3.60;99.90;;;;;;5041115;28;20040;-76
2023/04/28 01:20:46;;;;;;;30.67;19.08;;;3.50;99.90;;;;;;5052343;28;20981;-75
2023/04/28 01:23:14;;;;;;;31.23;20.73;;;3.40;99.90;;;;;;5041042;28;20052;-75
2023/04/28 01:25:44;;;;;;;31.20;20.42;;;3.40;99.90;;;;;;5038908;28;20048;-76
2023/04/28 01:28:12;;;;;;;31.85;21.85;;;3.40;99.90;;;;;;5038563;28;20494;-76
2023/04/28 01:30:41;;;;;;;34.15;21.88;;;3.40;99.90;;;;;;5063781;28;20055;-74
2023/04/28 01:33:09;;;;;;;32.17;21.33;;;3.40;99.90;;;;;;5062802;28;20044;-75
2023/04/28 01:35:36;;;;;;;39.60;25.15;;;3.30;99.90;;;;;;5060146;28;20361;-76
2023/04/28 01:38:04;;;;;;;37.88;21.88;;;3.30;99.90;;;;;;5079204;28;20040;-74
2023/04/28 01:40:31;;;;;;;37.65;24.17;;;3.20;99.90;;;;;;5077646;28;20043;-77
2023/04/28 01:43:00;;;;;;;39.53;24.25;;;3.10;99.90;;;;;;5082989;28;20051;-76
2023/04/28 01:45:30;;;;;;;39.80;24.60;;;3.10;99.90;;;;;;5068609;28;20041;-75
2023/04/28 01:47:58;;;;;;;37.63;24.10;;;3.00;99.90;;;;;;5086852;28;20055;-74
2023/04/28 01:50:25;;;;;;;36.78;22.35;;;3.00;99.90;;;;;;5061932;28;20492;-77
2023/04/28 01:52:54;;;;;;;33.85;21.88;;;3.00;99.90;;;;;;5062407;28;20036;-75
2023/04/28 01:55:22;;;;;;;26.08;18.13;;;3.00;99.90;;;;;;5058624;28;20068;-75
2023/04/28 01:57:50;;;;;;;28.45;17.85;;;3.10;99.90;;;;;;5063107;28;20044;-77
2023/04/28 02:00:20;;;;;;;33.03;18.00;;;3.10;99.90;;;;;;5061616;28;20434;-76
2023/04/28 02:02:51;;;;;;;29.35;18.10;;;3.00;99.90;;;;;;5080541;28;20037;-75
2023/04/28 02:05:19;;;;;;;25.13;17.40;;;3.10;99.90;;;;;;5063744;28;20039;-75
2023/04/28 02:07:48;;;;;;;26.98;17.02;;;3.00;99.90;;;;;;5080356;28;20086;-75
2023/04/28 02:10:16;;;;;;;27.25;17.90;;;3.00;99.90;;;;;;5077805;28;20120;-76
2023/04/28 02:12:44;;;;;;;24.60;15.32;;;3.00;99.90;;;;;;5077983;28;20036;-75
2023/04/28 02:15:12;;;;;;;24.88;16.85;;;3.00;99.90;;;;;;5079706;28;20032;-75
2023/04/28 02:17:41;;;;;;;25.98;17.00;;;3.00;99.90;;;;;;5080832;28;20048;-76
2023/04/28 02:20:09;;;;;;;33.05;19.50;;;3.00;99.90;;;;;;5080873;28;20557;-74
2023/04/28 02:22:37;;;;;;;30.33;21.17;;;2.90;99.90;;;;;;5080875;28;20080;-75
2023/04/28 02:25:07;;;;;;;26.20;14.77;;;2.90;99.90;;;;;;5079747;28;20032;-75
2023/04/28 02:27:38;;;;;;;25.98;15.50;;;2.90;99.90;;;;;;5076674;28;20052;-75
2023/04/28 02:30:06;;;;;;;26.55;15.20;;;2.90;99.90;;;;;;5063545;28;20052;-76
2023/04/28 02:32:34;;;;;;;26.13;15.13;;;2.80;99.90;;;;;;5079645;28;20518;-76
2023/04/28 02:35:03;;;;;;;25.58;14.57;;;2.70;99.90;;;;;;5078629;28;20132;-75
2023/04/28 02:37:31;;;;;;;24.15;13.02;;;2.70;99.90;;;;;;5080086;28;20050;-75
2023/04/28 02:39:59;;;;;;;25.02;14.65;;;2.80;99.90;;;;;;5061534;28;20424;-74
2023/04/28 02:42:26;;;;;;;26.23;16.75;;;2.80;99.90;;;;;;5060749;28;20085;-75
2023/04/28 02:44:54;;;;;;;27.83;17.30;;;2.70;99.90;;;;;;5063096;28;20070;-76
2023/04/28 02:47:21;;;;;;;32.55;17.67;;;2.70;99.90;;;;;;5063667;28;20051;-75
2023/04/28 02:49:49;;;;;;;25.33;17.02;;;2.70;99.90;;;;;;5063948;28;20052;-75
2023/04/28 02:52:18;;;;;;;26.30;17.50;;;2.70;99.90;;;;;;5061847;28;20048;-76
2023/04/28 02:54:47;;;;;;;31.40;18.90;;;2.60;99.90;;;;;;5061857;28;20424;-75
2023/04/28 02:57:16;;;;;;;29.60;18.98;;;2.60;99.90;;;;;;5062436;28;20036;-74
2023/04/28 02:59:43;;;;;;;22.83;15.13;;;2.60;99.90;;;;;;5068889;28;20048;-75
2023/04/28 03:02:11;;;;;;;24.77;15.88;;;2.60;99.90;;;;;;5088590;28;20071;-76
2023/04/28 03:04:38;;;;;;;24.92;15.40;;;2.60;99.90;;;;;;5081538;28;20105;-74
2023/04/28 03:07:06;;;;;;;25.98;16.75;;;2.50;99.90;;;;;;5063904;28;20560;-74
2023/04/28 03:09:35;;;;;;;22.75;15.98;;;2.50;99.90;;;;;;5080306;28;20105;-75
2023/04/28 03:12:03;;;;;;;23.15;15.65;;;2.50;99.90;;;;;;5061003;28;20044;-75
2023/04/28 03:14:32;;;;;;;28.08;17.35;;;2.50;99.90;;;;;;5077971;28;20123;-76
2023/04/28 03:17:00;;;;;;;24.20;16.10;;;2.50;99.90;;;;;;5061555;28;20040;-75
2023/04/28 03:19:27;;;;;;;25.67;17.02;;;2.50;99.90;;;;;;5063292;28;20101;-75
2023/04/28 03:21:55;;;;;;;25.25;17.20;;;2.60;99.90;;;;;;5063999;28;20090;-76
2023/04/28 03:24:25;;;;;;;25.20;16.25;;;2.60;99.90;;;;;;5059056;28;20733;-75
2023/04/28 03:26:54;;;;;;;25.42;17.60;;;2.50;99.90;;;;;;5076393;28;20041;-75
2023/04/28 03:29:24;;;;;;;29.60;16.85;;;2.40;99.90;;;;;;5061886;28;20090;-76
2023/04/28 03:31:52;;;;;;;27.05;17.35;;;2.50;99.90;;;;;;5062772;28;20098;-75
2023/04/28 03:34:21;;;;;;;26.02;16.27;;;2.50;99.90;;;;;;5078345;28;20071;-77
2023/04/28 03:36:48;;;;;;;27.95;17.23;;;2.60;99.90;;;;;;5060171;28;20058;-75
2023/04/28 03:39:24;;;;;;;22.30;15.18;;;2.50;99.90;;;;;;5058763;28;20496;-75
2023/04/28 03:41:52;;;;;;;25.98;16.77;;;2.50;99.90;;;;;;5060937;28;20116;-75
2023/04/28 03:44:41;;;;;;;27.10;16.55;;;2.50;99.90;;;;;;5077286;28;20063;-76
2023/04/28 03:47:09;;;;;;;27.73;18.25;;;2.50;99.90;;;;;;5061882;28;20124;-75
2023/04/28 03:49:37;;;;;;;27.83;17.85;;;2.40;99.90;;;;;;5062319;28;20048;-75
2023/04/28 03:52:05;;;;;;;25.65;16.77;;;2.50;99.90;;;;;;5060368;28;20036;-75
2023/04/28 03:54:33;;;;;;;23.38;15.82;;;2.50;99.90;;;;;;5073872;28;20052;-76
2023/04/28 03:57:01;;;;;;;26.65;16.15;;;2.60;99.90;;;;;;5060008;28;20071;-76
2023/04/28 03:59:28;;;;;;;24.45;16.83;;;2.60;99.90;;;;;;5057040;28;20130;-77
2023/04/28 04:01:57;;;;;;;26.90;15.50;;;2.60;99.90;;;;;;5077046;28;20598;-75
2023/04/28 04:04:25;;;;;;;21.52;14.68;;;2.60;99.90;;;;;;5075249;28;20066;-75
2023/04/28 04:06:53;;;;;;;21.60;14.45;;;2.60;99.90;;;;;;5059913;28;20048;-75
2023/04/28 04:09:20;;;;;;;25.70;15.10;;;2.70;99.90;;;;;;5059883;28;20488;-75
2023/04/28 04:11:48;;;;;;;24.77;13.82;;;3.10;99.90;;;;;;5078007;28;20139;-76
2023/04/28 04:14:15;;;;;;;25.05;16.00;;;3.70;99.90;;;;;;5077181;28;20040;-76
2023/04/28 04:16:43;;;;;;;25.35;14.80;;;4.10;99.90;;;;;;5058732;28;20051;-76
2023/04/28 04:19:12;;;;;;;24.98;15.68;;;4.50;99.90;;;;;;5062051;28;20059;-75
2023/04/28 04:21:44;;;;;;;24.08;15.32;;;4.90;99.90;;;;;;5061457;28;20041;-76
2023/04/28 04:24:11;;;;;;;28.45;15.82;;;5.60;99.90;;;;;;5062394;28;20048;-76
2023/04/28 04:26:39;;;;;;;25.55;16.20;;;5.90;99.90;;;;;;5061702;28;20043;-75
2023/04/28 04:29:23;;;;;;;24.75;15.80;;;5.90;99.90;;;;;;5059857;28;20128;-76
2023/04/28 04:31:51;;;;;;;26.25;16.88;;;5.80;99.90;;;;;;5058646;28;20133;-76
2023/04/28 04:34:21;;;;;;;39.63;20.40;;;5.70;99.90;;;;;;5058390;28;20043;-74
2023/04/28 04:36:50;;;;;;;30.38;18.45;;;5.50;99.90;;;;;;5078145;28;20491;-76
2023/04/28 04:39:18;;;;;;;30.08;19.48;;;5.30;99.90;;;;;;5058651;28;20044;-75
2023/04/28 04:41:46;;;;;;;32.63;19.52;;;5.20;99.90;;;;;;5075015;28;20040;-75
2023/04/28 04:44:34;;;;;;;29.10;18.85;;;5.30;99.90;;;;;;5075950;28;20040;-75
2023/04/28 04:47:02;;;;;;;34.80;18.75;;;5.40;99.90;;;;;;5059199;28;20051;-75
2023/04/28 04:49:32;;;;;;;27.20;17.42;;;5.30;99.90;;;;;;5057707;28;20048;-75
2023/04/28 04:52:00;;;;;;;30.10;19.02;;;5.40;99.90;;;;;;5056781;28;20053;-76
2023/04/28 04:54:29;;;;;;;32.10;17.95;;;5.40;99.90;;;;;;5058766;28;20036;-74
2023/04/28 04:56:56;;;;;;;28.75;18.85;;;5.40;99.90;;;;;;5063984;28;20036;-75
2023/04/28 04:59:44;;;;;;;31.25;18.90;;;5.40;99.90;;;;;;5045543;28;20625;-76
2023/04/28 05:02:16;;;;;;;27.17;16.42;;;5.40;99.90;;;;;;5060317;28;20138;-77
2023/04/28 05:04:45;;;;;;;32.53;17.05;;;5.60;99.90;;;;;;5060410;28;20417;-75
2023/04/28 05:07:15;;;;;;;32.15;18.98;;;5.70;99.90;;;;;;5060956;28;20140;-75
2023/04/28 05:09:44;;;;;;;32.47;17.85;;;5.90;99.90;;;;;;5078391;28;20132;-76
2023/04/28 05:12:12;;;;;;;25.60;16.35;;;5.80;99.90;;;;;;5059520;28;20072;-76
2023/04/28 05:14:39;;;;;;;33.50;19.35;;;5.90;99.90;;;;;;5057328;28;20065;-75
2023/04/28 05:17:07;;;;;;;32.00;19.63;;;6.10;99.90;;;;;;5058438;28;20079;-76
2023/04/28 05:19:38;;;;;;;28.70;18.27;;;6.30;99.90;;;;;;5059208;28;20075;-74
2023/04/28 05:22:06;;;;;;;32.10;17.63;;;6.50;99.90;;;;;;5058621;28;20040;-75
2023/04/28 05:24:36;;;;;;;26.40;14.23;;;6.70;99.90;;;;;;5059064;28;20044;-75
2023/04/28 05:27:04;;;;;;;29.30;17.60;;;6.90;99.90;;;;;;5061403;28;20130;-75
2023/04/28 05:29:32;;;;;;;28.90;16.23;;;7.20;99.90;;;;;;5065600;28;20068;-78
2023/04/28 05:31:59;;;;;;;28.23;14.68;;;7.70;1.00;;;;;;5084569;28;20048;-76
2023/04/28 05:34:27;;;;;;;21.90;14.57;;;8.10;1.00;;;;;;5064672;28;20395;-75
2023/04/28 05:36:54;;;;;;;20.38;12.82;;;8.30;1.00;;;;;;5068510;28;20082;-76
2023/04/28 05:39:26;;;;;;;24.80;14.63;;;8.50;1.00;;;;;;5062018;28;20085;-76
2023/04/28 05:41:57;;;;;;;26.58;17.27;;;8.90;1.00;;;;;;5066139;28;20040;-76
2023/04/28 05:44:25;;;;;;;23.58;13.80;;;9.30;1.00;;;;;;5087893;28;20040;-78
2023/04/28 05:46:53;;;;;;;24.35;14.38;;;9.60;99.90;;;;;;5075423;28;20576;-76
2023/04/28 05:49:25;;;;;;;20.13;12.43;;;10.10;1.00;;;;;;5065395;28;20047;-74
2023/04/28 05:51:53;;;;;;;24.85;16.25;;;10.50;10.40;;;;;;5063783;28;20065;-76
2023/04/28 05:54:21;;;;;;;25.15;16.05;;;10.90;1.00;;;;;;5073584;28;20042;-75
2023/04/28 05:56:53;;;;;;;26.45;13.75;;;11.10;1.00;;;;;;5069391;28;20028;-74
2023/04/28 05:59:21;;;;;;;28.70;12.25;;;11.00;97.10;;;;;;5065057;28;20113;-75
2023/04/28 06:01:49;;;;;;;25.50;12.57;;;11.00;1.00;;;;;;5064950;28;20044;-75
2023/04/28 06:04:17;;;;;;;30.73;13.13;;;11.10;1.00;;;;;;5058877;28;20040;-76
2023/04/28 06:06:44;;;;;;;21.75;11.95;;;11.10;24.90;;;;;;5060444;28;20048;-76
2023/04/28 06:09:12;;;;;;;23.95;11.57;;;11.30;91.60;;;;;;5064575;28;20036;-74
2023/04/28 06:11:39;;;;;;;23.60;11.27;;;11.60;91.30;;;;;;5061198;28;20434;-75
2023/04/28 06:14:09;;;;;;;39.13;14.27;;;11.50;89.20;;;;;;5062483;28;20059;-74
2023/04/28 06:16:37;;;;;;;63.63;21.95;;;11.70;89.70;;;;;;5083980;28;20048;-76
2023/04/28 06:19:07;;;;;;;37.08;14.85;;;11.80;88.10;;;;;;5064489;28;20497;-74
2023/04/28 06:21:35;;;;;;;25.38;13.88;;;12.10;87.70;;;;;;5061453;28;20037;-75
2023/04/28 06:24:04;;;;;;;30.83;14.63;;;12.40;84.60;;;;;;5062375;28;20506;-74
2023/04/28 06:26:31;;;;;;;23.02;13.68;;;12.60;82.80;;;;;;5060256;28;20496;-74
2023/04/28 06:28:59;;;;;;;55.17;31.23;;;12.70;80.80;;;;;;5080905;28;20137;-74
2023/04/28 06:31:29;;;;;;;32.70;15.55;;;12.90;79.20;;;;;;5057667;28;20033;-74
2023/04/28 06:33:57;;;;;;;26.98;13.30;;;13.00;76.70;;;;;;5050076;28;20172;-73
2023/04/28 06:36:25;;;;;;;27.25;14.35;;;12.90;76.30;;;;;;5048217;28;20121;-73
2023/04/28 06:38:53;;;;;;;26.98;12.65;;;12.90;77.00;;;;;;5056274;28;20107;-73
2023/04/28 06:41:20;;;;;;;26.98;12.18;;;13.20;76.50;;;;;;5041512;28;20044;-75
2023/04/28 06:43:51;;;;;;;28.33;12.18;;;13.20;74.40;;;;;;5040013;28;20041;-74
2023/04/28 06:46:28;;;;;;;17.02;9.75;;;13.40;73.40;;;;;;5037145;28;20056;-74
2023/04/28 06:48:56;;;;;;;17.50;8.27;;;13.60;71.80;;;;;;5039938;28;20151;-74
2023/04/28 06:51:23;;;;;;;16.67;8.45;;;13.80;69.20;;;;;;5039813;28;20057;-73
2023/04/28 06:53:52;;;;;;;13.45;7.55;;;14.00;67.50;;;;;;5037982;28;20053;-73
2023/04/28 06:56:19;;;;;;;13.32;6.57;;;14.20;66.80;;;;;;5048042;28;20064;-73
2023/04/28 06:58:55;;;;;;;13.70;8.45;;;14.30;63.30;;;;;;5038266;28;20049;-74
2023/04/28 07:01:22;;;;;;;14.98;7.68;;;14.40;63.60;;;;;;5040338;28;20045;-73
2023/04/28 07:03:51;;;;;;;12.38;8.68;;;14.80;63.70;;;;;;5044854;28;20080;-75
2023/04/28 07:06:26;;;;;;;14.05;7.65;;;15.10;63.40;;;;;;5040910;28;20056;-75
2023/04/28 07:08:54;;;;;;;15.43;7.80;;;15.30;62.50;;;;;;5039021;28;20123;-74
2023/04/28 07:11:22;;;;;;;17.98;7.95;;;15.20;62.60;;;;;;5040649;28;20041;-74
2023/04/28 07:13:50;;;;;;;15.88;7.28;;;15.30;61.90;;;;;;5040563;28;20084;-74
2023/04/28 07:16:20;;;;;;;14.77;6.68;;;15.30;60.40;;;;;;5038205;28;20405;-74
2023/04/28 07:18:47;;;;;;;14.25;7.13;;;15.20;59.60;;;;;;5040166;28;20128;-73
2023/04/28 07:21:16;;;;;;;16.73;7.45;;;15.30;60.30;;;;;;5039670;28;20047;-73
2023/04/28 07:23:44;;;;;;;13.50;7.45;;;15.50;60.80;;;;;;5038328;28;20045;-73
2023/04/28 07:26:15;;;;;;;12.25;6.88;;;15.80;61.00;;;;;;5041224;28;20099;-73
2023/04/28 07:28:42;;;;;;;14.52;7.45;;;16.00;59.50;;;;;;5038216;28;20418;-73
2023/04/28 07:31:10;;;;;;;13.10;6.80;;;15.80;59.80;;;;;;5069584;28;20052;-73
2023/04/28 07:33:37;;;;;;;11.77;6.95;;;15.80;59.90;;;;;;5080299;28;20401;-74
2023/04/28 07:36:05;;;;;;;14.07;6.82;;;15.80;60.00;;;;;;5078743;28;20037;-73
2023/04/28 07:38:35;;;;;;;13.05;7.35;;;16.00;60.40;;;;;;5079259;28;20040;-73
2023/04/28 07:41:03;;;;;;;11.38;6.72;;;16.30;60.20;;;;;;5079814;28;20045;-74
2023/04/28 07:43:31;;;;;;;12.70;7.32;;;16.60;58.30;;;;;;5079300;28;20044;-73
2023/04/28 07:45:58;;;;;;;12.43;7.32;;;16.40;58.30;;;;;;5081869;28;20144;-74
2023/04/28 07:48:26;;;;;;;17.27;11.88;;;16.40;58.60;;;;;;5080255;28;20051;-73
2023/04/28 07:50:53;;;;;;;14.80;8.63;;;16.70;58.10;;;;;;5084090;28;20052;-74
2023/04/28 07:53:21;;;;;;;14.38;8.27;;;16.70;58.10;;;;;;5085618;28;20047;-74
2023/04/28 07:55:50;;;;;;;20.27;11.45;;;16.80;55.10;;;;;;5080990;28;20045;-74
2023/04/28 07:58:17;;;;;;;19.00;11.73;;;16.80;54.20;;;;;;5076777;28;20101;-73
2023/04/28 08:00:45;;;;;;;23.73;11.98;;;16.90;56.00;;;;;;5075943;28;20587;-74
2023/04/28 08:03:12;;;;;;;16.55;10.40;;;17.10;56.50;;;;;;5076312;28;20044;-74
2023/04/28 08:05:40;;;;;;;19.65;10.25;;;17.00;55.00;;;;;;5078306;28;20047;-73
2023/04/28 08:08:07;;;;;;;22.30;12.80;;;17.00;54.90;;;;;;5079870;28;20052;-73
2023/04/28 08:10:35;;;;;;;8.43;5.28;;;17.00;55.40;;;;;;5079048;28;20045;-73
2023/04/28 08:13:04;;;;;;;9.38;4.15;;;17.00;48.00;;;;;;5078927;28;20051;-74
2023/04/28 08:15:31;;;;;;;14.18;3.92;;;17.10;42.30;;;;;;5078581;28;20047;-74
2023/04/28 08:17:58;;;;;;;5.72;2.72;;;17.20;41.60;;;;;;5079584;28;20432;-75
2023/04/28 08:20:26;;;;;;;9.80;2.60;;;17.20;41.00;;;;;;5078814;28;20036;-73
2023/04/28 08:22:53;;;;;;;7.30;3.35;;;17.20;40.40;;;;;;5080051;28;20039;-74
2023/04/28 08:25:21;;;;;;;7.65;3.45;;;16.80;40.60;;;;;;5079757;28;20331;-74
2023/04/28 08:27:49;;;;;;;5.93;3.10;;;17.00;39.90;;;;;;5079190;28;20066;-73
2023/04/28 08:30:17;;;;;;;10.82;3.72;;;17.10;39.50;;;;;;5077419;28;20390;-74
2023/04/28 08:32:45;;;;;;;4.82;2.28;;;17.20;39.40;;;;;;5079210;28;20056;-73
2023/04/28 08:35:14;;;;;;;11.05;3.50;;;17.40;38.40;;;;;;5078345;28;20110;-73
2023/04/28 08:37:41;;;;;;;8.60;3.10;;;17.20;38.50;;;;;;5059354;28;20131;-73
2023/04/28 08:40:11;;;;;;;9.82;3.05;;;17.20;39.20;;;;;;5078162;28;20036;-74
2023/04/28 08:42:38;;;;;;;6.13;3.03;;;17.20;38.80;;;;;;5074661;28;20052;-73
2023/04/28 08:45:07;;;;;;;8.18;3.47;;;17.00;39.20;;;;;;5077272;28;20056;-74
2023/04/28 08:47:39;;;;;;;6.95;3.20;;;17.20;39.80;;;;;;5078521;28;20097;-74
2023/04/28 08:50:07;;;;;;;5.93;2.40;;;17.20;38.80;;;;;;5076341;28;20048;-73
2023/04/28 08:52:36;;;;;;;8.23;2.97;;;17.20;38.00;;;;;;5058801;28;20514;-73
2023/04/28 08:55:08;;;;;;;10.32;3.58;;;17.40;38.60;;;;;;5076462;28;20080;-75
2023/04/28 08:57:39;;;;;;;7.97;3.40;;;17.50;38.40;;;;;;5078136;28;20037;-74
2023/04/28 09:00:08;;;;;;;7.20;3.50;;;17.60;38.90;;;;;;5058284;28;20040;-74
2023/04/28 09:02:40;;;;;;;10.70;4.68;;;17.70;37.90;;;;;;5079886;28;20036;-73
2023/04/28 09:05:08;;;;;;;7.93;3.50;;;17.80;37.70;;;;;;5082599;28;20146;-73
2023/04/28 09:07:36;;;;;;;7.20;2.97;;;17.80;38.60;;;;;;5064215;28;20048;-74
2023/04/28 09:10:18;;;;;;;7.50;2.72;;;17.80;37.40;;;;;;5081502;28;20036;-73
2023/04/28 09:12:46;;;;;;;5.75;2.53;;;17.70;38.10;;;;;;5065156;28;20040;-73
2023/04/28 09:15:27;;;;;;;8.38;3.72;;;17.70;37.90;;;;;;5084941;28;20044;-74
2023/04/28 09:17:57;;;;;;;8.50;2.63;;;17.60;38.30;;;;;;5068969;28;20044;-73
2023/04/28 09:20:25;;;;;;;7.65;3.25;;;17.40;38.90;;;;;;5082334;28;20040;-74
2023/04/28 09:22:55;;;;;;;6.07;3.00;;;17.40;38.90;;;;;;5085139;28;20035;-73
2023/04/28 09:25:25;;;;;;;6.65;3.03;;;17.60;39.30;;;;;;5090603;28;20123;-74
2023/04/28 09:27:53;;;;;;;6.80;2.42;;;17.70;39.10;;;;;;5088418;28;20036;-73
2023/04/28 09:30:39;;;;;;;6.97;3.10;;;17.80;37.60;;;;;;5080060;28;20048;-73
2023/04/28 09:33:08;;;;;;;;;;;17.80;38.30;;;;;;5081768;28;20032;-73
2023/04/28 09:35:44;;;;;;;7.60;3.33;;;17.90;37.70;;;;;;5065501;28;20253;-73
2023/04/28 09:38:11;;;;;;;11.13;3.80;;;18.00;37.30;;;;;;5083985;28;20045;-73
2023/04/28 09:40:53;;;;;;;7.10;3.97;;;18.10;37.10;;;;;;5082147;28;20082;-73
2023/04/28 09:43:26;;;;;;;5.75;2.78;;;18.20;36.80;;;;;;5082963;28;20040;-74
2023/04/28 09:45:53;;;;;;;6.43;2.80;;;18.30;36.70;;;;;;5081587;28;20565;-72
2023/04/28 09:48:30;;;;;;;7.28;2.80;;;18.40;36.60;;;;;;5078706;28;20036;-74
2023/04/28 09:50:59;;;;;;;8.80;4.43;;;18.40;36.40;;;;;;5083346;28;20040;-73
2023/04/28 09:53:27;;;;;;;4.97;2.70;;;18.30;36.30;;;;;;5080140;28;20037;-72
2023/04/28 09:55:55;;;;;;;5.10;2.28;;;18.10;36.60;;;;;;5080542;28;20210;-73
2023/04/28 09:58:24;;;;;;;7.50;4.38;;;18.30;37.30;;;;;;5076589;28;20048;-72
2023/04/28 10:00:53;;;;;;;7.45;2.97;;;18.30;37.10;;;;;;5079957;28;20044;-75
2023/04/28 10:03:23;;;;;;;9.57;2.70;;;18.50;37.10;;;;;;5081905;28;20439;-73
2023/04/28 10:05:53;;;;;;;4.65;2.30;;;18.50;37.20;;;;;;5081796;28;20048;-75
2023/04/28 10:08:21;;;;;;;8.40;3.50;;;18.70;37.00;;;;;;5083407;28;20037;-73
2023/04/28 10:10:51;;;;;;;9.80;3.35;;;18.90;36.70;;;;;;5070859;28;20047;-73
2023/04/28 10:13:20;;;;;;;5.68;3.70;;;19.10;36.40;;;;;;5079830;28;20044;-73
2023/04/28 10:15:48;;;;;;;6.30;2.60;;;19.20;35.70;;;;;;5080156;28;20047;-75
2023/04/28 10:18:16;;;;;;;5.43;2.42;;;19.20;35.00;;;;;;5062202;28;20542;-74
2023/04/28 10:20:46;;;;;;;4.68;2.53;;;19.30;35.70;;;;;;5078599;28;20048;-73
2023/04/28 10:24:08;;;;;;;7.40;3.63;;;19.20;35.90;;;;;;5079300;28;20044;-73
2023/04/28 10:27:02;;;;;;;8.05;2.72;;;19.50;36.30;;;;;;5035297;28;20045;-72
2023/04/28 10:29:32;;;;;;;7.75;2.60;;;19.80;35.90;;;;;;5061656;28;20043;-73
2023/04/28 10:32:18;;;;;;;6.57;2.47;;;19.70;35.90;;;;;;5079831;28;20032;-74
2023/04/28 10:34:47;;;;;;;6.05;2.70;;;19.90;34.30;;;;;;5079880;28;20041;-74
2023/04/28 10:37:16;;;;;;;5.75;2.65;;;19.90;34.60;;;;;;5078368;28;20044;-73
2023/04/28 10:40:16;;;;;;;5.30;2.70;;;19.60;35.30;;;;;;5080326;28;20464;-73
2023/04/28 10:42:56;;;;;;;4.78;2.63;;;19.80;34.80;;;;;;5077457;28;20041;-73
2023/04/28 10:46:01;;;;;;;4.75;2.30;;;19.80;33.70;;;;;;5080881;28;20446;-76
2023/04/28 10:48:56;;;;;;;8.05;5.03;;;19.90;34.00;;;;;;5078487;28;20110;-75
2023/04/28 10:51:31;;;;;;;6.72;3.50;;;19.90;34.70;;;;;;5059122;28;20132;-75
2023/04/28 10:54:09;;;;;;;;;;;19.90;34.30;;;;;;5080970;28;20580;-75
2023/04/28 10:56:36;;;;;;;8.13;3.65;;;20.00;34.10;;;;;;5079242;28;20011;-75
2023/04/28 10:59:27;;;;;;;6.13;2.88;;;20.00;33.30;;;;;;5081673;28;20053;-74
2023/04/28 11:01:54;;;;;;;5.35;2.38;;;19.90;33.10;;;;;;5083784;28;20037;-75
2023/04/28 11:04:23;;;;;;;5.82;2.65;;;20.10;33.10;;;;;;5081123;28;20060;-75
2023/04/28 11:07:13;;;;;;;4.25;2.28;;;20.30;32.20;;;;;;5079560;28;20044;-75
2023/04/28 11:09:52;;;;;;;7.72;3.35;;;20.30;32.40;;;;;;5079400;28;20115;-76
2023/04/28 11:12:19;;;;;;;8.73;4.10;;;20.20;32.30;;;;;;5085933;28;20519;-75
2023/04/28 11:14:51;;;;;;;7.00;2.70;;;20.30;32.30;;;;;;5076405;28;20070;-74
2023/04/28 11:17:40;;;;;;;8.60;3.70;;;20.30;32.20;;;;;;5080944;28;20048;-75
2023/04/28 11:20:14;;;;;;;5.70;2.25;;;20.50;32.30;;;;;;5078729;28;20044;-75
2023/04/28 11:22:42;;;;;;;9.15;4.78;;;20.60;31.70;;;;;;5082131;28;20041;-75
2023/04/28 11:25:10;;;;;;;5.53;2.63;;;20.80;31.60;;;;;;5078597;28;20499;-76
2023/04/28 11:27:37;;;;;;;7.95;5.03;;;20.80;30.70;;;;;;5078044;28;20036;-74
2023/04/28 11:30:21;;;;;;;5.05;2.97;;;21.00;31.40;;;;;;5076523;28;20082;-75
2023/04/28 11:32:50;;;;;;;10.93;7.65;;;20.90;31.00;;;;;;5060896;28;20150;-74
2023/04/28 11:35:18;;;;;;;6.05;2.30;;;21.00;31.30;;;;;;5076879;28;20048;-74
2023/04/28 11:37:46;;;;;;;6.40;3.20;;;21.20;30.20;;;;;;5080623;28;20052;-75
2023/04/28 11:40:14;;;;;;;8.85;4.75;;;21.30;30.00;;;;;;5078003;28;20041;-75
2023/04/28 11:42:48;;;;;;;4.47;2.50;;;20.90;29.70;;;;;;5078732;28;20060;-74
2023/04/28 11:45:17;;;;;;;4.15;1.85;;;21.10;29.90;;;;;;5076994;28;20032;-75
2023/04/28 11:47:44;;;;;;;7.00;2.35;;;21.00;29.40;;;;;;5079710;28;20056;-74
2023/04/28 11:50:14;;;;;;;6.93;3.05;;;21.00;28.90;;;;;;5078960;28;20070;-77
2023/04/28 11:52:49;;;;;;;5.30;2.30;;;21.00;29.30;;;;;;5078787;28;20136;-75
2023/04/28 11:55:17;;;;;;;8.05;3.50;;;21.10;29.30;;;;;;5080441;28;20035;-74
2023/04/28 11:57:44;;;;;;;3.75;1.98;;;21.10;30.00;;;;;;5081512;28;20439;-75
2023/04/28 12:00:17;;;;;;;6.22;2.45;;;21.30;29.60;;;;;;5077845;28;20040;-75
2023/04/28 12:02:46;;;;;;;7.18;4.07;;;21.30;28.60;;;;;;5076134;28;20044;-74
2023/04/28 12:05:16;;;;;;;8.00;5.47;;;21.40;29.00;;;;;;5076829;28;20039;-73
2023/04/28 12:07:45;;;;;;;6.80;2.65;;;21.70;29.10;;;;;;5078740;28;20404;-76
2023/04/28 12:10:14;;;;;;;7.20;3.20;;;21.80;28.80;;;;;;5074092;28;20059;-74
2023/04/28 12:12:42;;;;;;;6.20;3.10;;;21.90;28.50;;;;;;5060424;28;20070;-75
2023/04/28 12:15:10;;;;;;;5.57;2.55;;;22.00;29.40;;;;;;5076688;28;20040;-75
2023/04/28 12:17:40;;;;;;;6.50;2.33;;;22.00;29.60;;;;;;5076626;28;20079;-76
2023/04/28 12:20:11;;;;;;;6.07;2.63;;;22.20;30.00;;;;;;5075991;28;20528;-74
2023/04/28 12:22:46;;;;;;;5.13;1.95;;;22.20;29.20;;;;;;5077673;28;20040;-75
2023/04/28 12:25:16;;;;;;;5.78;2.30;;;22.40;28.70;;;;;;5077454;28;20040;-75
2023/04/28 12:28:01;;;;;;;4.35;2.08;;;22.40;28.30;;;;;;5075226;28;20049;-75
2023/04/28 12:30:30;;;;;;;4.65;1.98;;;22.70;28.10;;;;;;5078451;28;20048;-75
2023/04/28 12:32:58;;;;;;;5.10;2.13;;;22.40;27.80;;;;;;5079172;28;20521;-74
2023/04/28 12:35:28;;;;;;;4.80;2.35;;;22.20;28.10;;;;;;5086806;28;20036;-75
2023/04/28 12:37:57;;;;;;;5.45;2.20;;;22.00;28.60;;;;;;5083857;28;20489;-75
2023/04/28 12:40:25;;;;;;;5.65;2.65;;;22.00;28.60;;;;;;5085893;28;20074;-75
2023/04/28 12:42:53;;;;;;;3.53;1.90;;;22.10;28.50;;;;;;5090289;28;20045;-76
2023/04/28 12:45:20;;;;;;;4.70;2.05;;;22.10;28.40;;;;;;5090123;28;20506;-75
2023/04/28 12:47:48;;;;;;;3.85;2.00;;;22.30;28.40;;;;;;5088617;28;20032;-75
2023/04/28 12:50:15;;;;;;;5.18;2.03;;;22.60;27.80;;;;;;5090107;28;20064;-75
2023/04/28 12:52:44;;;;;;;6.40;2.47;;;22.70;28.10;;;;;;5082443;28;20048;-75
2023/04/28 12:55:12;;;;;;;3.53;2.00;;;22.70;27.30;;;;;;5079533;28;20052;-75